Metar Cercanos

 

LEPA - Palma De Mallorc, Spain
Distance from station: ONO 38km
Actualización: 21/05/2018 13:00
Parcialmente nuboso
Parcialmente nuboso
 Viento del OSO
Viento: OSO 19 km/h
Temperatura: 21°C
Rocío: 15°C
Humedad: 69%
Barómetro: 1012 hPa
Clouds: Parcialmente nuboso
Visibility: 10 km
Cloud details: Few Clouds 549 m
Few Clouds 762 m
Parcialmente nuboso 1219 m
2018/05/21 11:00 LEPA 211100Z 24010KT 210V280 9999 FEW018 FEW025TCU SCT040 21/15 Q1012 NOSIG
LEMH - Mahon/Menorca Is, Spain
Distance from station: ENE 105km
Actualización: 21/05/2018 13:00
Few Clouds
Few Clouds
 Viento del NNO
Viento: NNO 13 km/h
Temperatura: 17°C
Rocío: 13°C
Humedad: 77%
Barómetro: 1011 hPa
Clouds: Few Clouds
Visibility: 10 km
Cloud details: Few Clouds 610 m
2018/05/21 11:00 LEMH 211100Z 33007KT 300V010 9999 FEW020TCU 17/13 Q1011
 
LEIB - Ibiza/Es Codola, Spain
Distance from station: OSO 165km
Actualización: 21/05/2018 13:00
Parcialmente nuboso
Parcialmente nuboso
 Viento del SO
Viento: SO 24 km/h
Temperatura: 21°C
Rocío: 15°C
Humedad: 69%
Barómetro: 1012 hPa
Clouds: Parcialmente nuboso
Visibility: 10 km
Cloud details: Parcialmente nuboso 732 m
2018/05/21 11:00 LEIB 211100Z 22013KT 180V260 9999 SCT024 21/15 Q1012 NOSIG
LEBL - Barcelona Airpor, Spain
Distance from station: NNO 225km
Actualización: 21/05/2018 13:00
Few Clouds
Few Clouds
 Viento del ESE
Viento: ESE 13 km/h
Temperatura: 20°C
Rocío: 13°C
Humedad: 64%
Barómetro: 1012 hPa
Clouds: Few Clouds
Visibility: 10 km
Cloud details: Few Clouds 762 m
2018/05/21 11:00 LEBL 211100Z 12007KT 080V160 9999 FEW025 20/13 Q1012 NOSIG
 
LEVC - Valencia (civ/Mi, Spain
Distance from station: NO 188km
Actualización: 21/05/2018 13:00
Few Clouds
Few Clouds
 Viento del ESE
Viento: ESE 15 km/h
Temperatura: 24°C
Rocío: 10°C
Humedad: 41%
Barómetro: 1011 hPa
Clouds: Few Clouds
Visibility: 10 km
Cloud details: Few Clouds 1067 m
2018/05/21 11:00 LEVC 211100Z 11008KT 060V150 9999 FEW035TCU 24/10 Q1011 NOSIG
LEGE - Gerona/Costa Bra, Spain
Distance from station: N 276km
Actualización: 21/05/2018 13:00
Few Clouds
Few Clouds
 Viento del varies
Viento: varies 4 km/h
Temperatura: 21°C
Rocío: 11°C
Humedad: 53%
Barómetro: 1012 hPa
Clouds: Few Clouds
Visibility: 10 km
Cloud details: Few Clouds 914 m
2018/05/21 11:00 LEGE 211100Z VRB02KT 9999 FEW030 21/11 Q1012
 
LEAL - Alicante/El Alte, Spain
Distance from station: OSO 344km
Actualización: 21/05/2018 13:00
Few Clouds
Few Clouds
 Viento del SSE
Viento: SSE 13 km/h
Temperatura: 23°C
Rocío: 15°C
Humedad: 61%
Barómetro: 1012 hPa
Clouds: Few Clouds
Visibility: 10 km
Cloud details: Few Clouds 610 m
2018/05/21 11:00 LEAL 211100Z 15007KT 080V240 9999 FEW020 23/15 Q1012 NOSIG
LEAM - Almeria Airport, Spain
Distance from station: SSO 56km
Actualización: 01/01/1970 01:00
NOT Current
unable to load LEAM data RC=404 Not Found
unable to load LEAM data RC=404 Not Found
 
 
LEZG - Zaragoza (mil/Ci, Spain
Distance from station: NO 431km
Actualización: 21/05/2018 13:00
Few Clouds
Few Clouds
 Viento del NE
Viento: NE 7 km/h
Temperatura: 23°C
Rocío: 12°C
Humedad: 50%
Barómetro: 1011 hPa
Clouds: Few Clouds
Visibility: 10 km
Cloud details: Few Clouds 2438 m
2018/05/21 11:00 LEZG 211100Z 05004KT 9999 FEW080 23/12 Q1011
LEMD - Madrid/Barajas, Spain
Distance from station: ONO 234km
Actualización: 21/05/2018 13:00
Parcialmente nuboso
Parcialmente nuboso
 Viento del S
Viento: S 11 km/h, Racha: 39 km/h
Temperatura: 21°C
Rocío: 11°C
Humedad: 53%
Barómetro: 1012 hPa
Clouds: Parcialmente nuboso
Visibility: 10 km
Cloud details: Few Clouds 1067 m
Parcialmente nuboso 1219 m
2018/05/21 11:00 LEMD 211100Z 17006G21KT 090V210 9999 FEW035 SCT040 21/11 Q1012 NOSIG
 
LEGR - Granada Airport, Spain
Distance from station: OSO 62km
Actualización: 21/05/2018 13:00
Parcialmente nuboso
Parcialmente nuboso
 Viento del varies
Viento: varies 9 km/h
Temperatura: 21°C
Rocío: 9°C
Humedad: 46%
Barómetro: 1013 hPa
Clouds: Parcialmente nuboso
Visibility: 10 km
Cloud details: Parcialmente nuboso 1219 m
2018/05/21 11:00 LEGR 211100Z VRB05KT 9999 SCT040TCU 21/09 Q1013
LEMG - Malaga (civ/Mil), Spain
Distance from station: OSO 227km
Actualización: 21/05/2018 13:00
Few Clouds
Few Clouds
 Viento del SSE
Viento: SSE 17 km/h
Temperatura: 20°C
Rocío: 14°C
Humedad: 69%
Barómetro: 1013 hPa
Clouds: Few Clouds
Visibility: 10 km
Cloud details: Few Clouds 1981 m
2018/05/21 11:00 LEMG 211100Z 15009KT 110V190 9999 FEW065 20/14 Q1013 NOSIG
 
LEZL - Sevilla (civ/Mil, Spain
Distance from station: S 318km
Actualización: 21/05/2018 13:00
Parcialmente nuboso
Parcialmente nuboso
 Viento del O
Viento: O 6 km/h
Temperatura: 22°C
Rocío: 14°C
Humedad: 61%
Barómetro: 1013 hPa
Clouds: Parcialmente nuboso
Visibility: 10 km
Cloud details: Parcialmente nuboso 914 m
2018/05/21 11:00 LEZL 211100Z 27003KT 9999 SCT030 22/14 Q1013 NOSIG
LEVT - Vitoria, Spain
Distance from station: NO 226km
Actualización: 21/05/2018 13:00
Few Clouds
Few Clouds
 Viento del SE
Viento: SE 4 km/h
Temperatura: 22°C
Rocío: 12°C
Humedad: 53%
Barómetro: 1011 hPa
Clouds: Few Clouds
Visibility: 10 km
Cloud details: Few Clouds 1067 m
2018/05/21 11:00 LEVT 211100Z 13002KT 9999 FEW035TCU 22/12 Q1011
 
LEBB - Bilbao/Sondica, Spain
Distance from station: NNO 235km
Actualización: 21/05/2018 13:00
Few Clouds
Few Clouds
 Viento del O
Viento: O 17 km/h
Temperatura: 22°C
Rocío: 15°C
Humedad: 65%
Barómetro: 1010 hPa
Clouds: Few Clouds
Visibility: 10 km
Cloud details: Few Clouds 1067 m
2018/05/21 11:00 LEBB 211100Z 28009KT 240V320 9999 FEW035 22/15 Q1010 NOSIG
LESO - San Sebastian/Fu, Spain
Distance from station: N 231km
Actualización: 21/05/2018 13:00
Despejado
Despejado
 Viento del NNE
Viento: NNE 9 km/h
Temperatura: 19°C
Rocío: 15°C
Humedad: 78%
Barómetro: 1010 hPa
Resumen: Despejado
Visibility: greater than 10 km
2018/05/21 11:00 LESO 211100Z 02005KT 330V070 CAVOK 19/15 Q1010
 
LEVD - Valladolid(Mil/C, Spain
Distance from station: ONO 239km
Actualización: 21/05/2018 13:00
Few Clouds
Few Clouds
 Viento del SSO
Viento: SSO 11 km/h
Temperatura: 19°C
Rocío: 7°C
Humedad: 46%
Barómetro: 1013 hPa
Clouds: Few Clouds
Visibility: 10 km
Cloud details: Few Clouds 1311 m
2018/05/21 11:00 LEVD 211100Z 20006KT 160V240 9999 FEW043 19/07 Q1013
LESA - Salamanca (civ/M, Spain
Distance from station: ONO 349km
Actualización: 21/05/2018 13:00
Parcialmente nuboso
Parcialmente nuboso
 Viento del varies
Viento: varies 6 km/h
Temperatura: 20°C
Rocío: 9°C
Humedad: 49%
Barómetro: 1012 hPa
Clouds: Parcialmente nuboso
Visibility: 10 km
Cloud details: Parcialmente nuboso 1280 m
2018/05/21 11:00 LESA 211100Z VRB03KT 9999 SCT042 20/09 Q1012
 
LEXJ - Santander/Paraya, Spain
Distance from station: NNO 247km
Actualización: 21/05/2018 13:00
Few Clouds
Few Clouds
 Viento del NE
Viento: NE 11 km/h
Temperatura: 18°C
Rocío: 15°C
Humedad: 83%
Barómetro: 1011 hPa
Clouds: Few Clouds
Visibility: 10 km
Cloud details: Few Clouds 914 m
2018/05/21 11:00 LEXJ 211100Z 05006KT 010V090 9999 FEW030 18/15 Q1011
LEAS - Asturias/Aviles, Spain
Distance from station: NO 214km
Actualización: 21/05/2018 13:00
Few Clouds
Few Clouds
 Viento del NE
Viento: NE 13 km/h
Temperatura: 17°C
Rocío: 13°C
Humedad: 77%
Barómetro: 1012 hPa
Clouds: Few Clouds
Visibility: 10 km
Cloud details: Few Clouds 274 m
2018/05/21 11:00 LEAS 211100Z 05007KT 010V100 9999 FEW009 17/13 Q1012 NOSIG
 
LECO - La Coruna/Alvedr, Spain
Distance from station: ONO 222km
Actualización: 21/05/2018 13:00
Few Clouds
Few Clouds
 Viento del NNE
Viento: NNE 11 km/h
Temperatura: 16°C
Rocío: 12°C
Humedad: 77%
Barómetro: 1012 hPa
Clouds: Few Clouds
Visibility: 10 km
Cloud details: Few Clouds 610 m
2018/05/21 11:00 LECO 211100Z 03006KT 330V070 9999 FEW020 16/12 Q1012 NOSIG
LEVX - Vigo/Peinador, Spain
Distance from station: O 214km
Actualización: 21/05/2018 13:00
Despejado
Despejado
 Viento del varies
Viento: varies 7 km/h
Temperatura: 18°C
Rocío: 13°C
Humedad: 73%
Barómetro: 1012 hPa
Resumen: Despejado
Visibility: greater than 10 km
2018/05/21 11:00 LEVX 211100Z VRB04KT CAVOK 18/13 Q1012 NOSIG